createdAt,value
2019-02-17T00:00:10.893Z,5.60
2019-02-17T00:02:47.990Z,5.70
2019-02-17T00:05:26.208Z,5.90
2019-02-17T00:08:00.191Z,6.30
2019-02-17T00:10:43.172Z,6.00
2019-02-17T00:13:19.782Z,5.97
2019-02-17T00:15:54.398Z,5.27
2019-02-17T00:18:28.212Z,4.70
2019-02-17T00:21:06.605Z,4.80
2019-02-17T00:23:43.544Z,4.60
2019-02-17T00:26:19.082Z,4.70
2019-02-17T00:28:59.483Z,4.20
2019-02-17T00:31:30.331Z,4.20
2019-02-17T00:34:06.786Z,4.20
2019-02-17T00:36:41.904Z,4.57
2019-02-17T00:39:22.842Z,4.03
2019-02-17T00:42:02.578Z,4.60
2019-02-17T00:44:36.645Z,4.07
2019-02-17T00:47:17.458Z,4.20
2019-02-17T00:49:53.155Z,4.70
2019-02-17T00:52:28.743Z,4.60
2019-02-17T00:55:03.750Z,4.90
2019-02-17T00:57:38.273Z,4.93
2019-02-17T01:00:18.931Z,4.50
2019-02-17T01:02:53.463Z,5.30
2019-02-17T01:05:33.482Z,5.77
2019-02-17T01:08:08.312Z,5.37
2019-02-17T01:10:46.177Z,5.20
2019-02-17T01:13:21.380Z,5.50
2019-02-17T01:15:58.063Z,5.03
2019-02-17T01:18:35.258Z,4.77
2019-02-17T01:21:11.785Z,5.37
2019-02-17T01:23:47.348Z,5.20
2019-02-17T01:26:26.006Z,5.03
2019-02-17T01:29:00.013Z,5.37
2019-02-17T01:31:36.342Z,5.40
2019-02-17T01:34:25.973Z,5.27
2019-02-17T01:37:01.126Z,5.17
2019-02-17T01:39:39.404Z,5.30
2019-02-17T01:42:13.318Z,5.50
2019-02-17T01:44:48.973Z,5.63
2019-02-17T01:47:29.410Z,5.87
2019-02-17T01:50:04.512Z,5.67
2019-02-17T01:52:40.190Z,5.70
2019-02-17T01:55:18.486Z,5.50
2019-02-17T01:57:56.148Z,5.70
2019-02-17T02:00:33.184Z,5.87
2019-02-17T02:03:10.569Z,5.40
2019-02-17T02:05:45.565Z,5.80
2019-02-17T02:08:27.647Z,6.40
2019-02-17T02:11:04.987Z,5.87
2019-02-17T02:13:42.501Z,6.37
2019-02-17T02:16:44.714Z,8.30
2019-02-17T02:19:33.037Z,8.13
2019-02-17T02:22:12.522Z,7.17
2019-02-17T02:24:59.479Z,6.53
2019-02-17T02:27:40.009Z,5.90
2019-02-17T02:30:45.449Z,5.43
2019-02-17T02:33:39.544Z,5.90
2019-02-17T02:36:32.983Z,5.60
2019-02-17T02:39:24.211Z,4.30
2019-02-17T02:42:27.936Z,4.57
2019-02-17T02:45:17.200Z,3.97
2019-02-17T02:47:58.997Z,3.30
2019-02-17T02:50:36.302Z,4.17
2019-02-17T02:53:23.639Z,4.67
2019-02-17T02:56:02.701Z,3.50
2019-02-17T02:58:46.635Z,3.67
2019-02-17T03:01:34.301Z,3.80
2019-02-17T03:04:13.232Z,2.70
2019-02-17T03:07:08.337Z,2.53
2019-02-17T03:09:59.729Z,2.67
2019-02-17T03:12:43.899Z,2.10
2019-02-17T03:15:27.314Z,2.03
2019-02-17T03:18:14.660Z,2.70
2019-02-17T03:21:11.303Z,3.53
2019-02-17T03:23:50.442Z,5.17
2019-02-17T03:26:40.097Z,6.47
2019-02-17T03:29:24.783Z,10.07
2019-02-17T03:32:06.077Z,18.47
2019-02-17T03:34:45.207Z,7.87
2019-02-17T03:37:20.471Z,4.40
2019-02-17T03:40:06.762Z,4.00
2019-02-17T03:42:46.806Z,3.60
2019-02-17T03:45:41.816Z,4.33
2019-02-17T03:48:18.180Z,2.97
2019-02-17T03:51:02.336Z,3.43
2019-02-17T03:53:52.117Z,4.37
2019-02-17T03:56:39.371Z,3.20
2019-02-17T03:59:17.911Z,3.73
2019-02-17T04:02:16.649Z,3.77
2019-02-17T04:05:00.870Z,3.60
2019-02-17T04:07:39.688Z,4.00
2019-02-17T04:10:28.799Z,6.83
2019-02-17T04:13:21.721Z,6.53
2019-02-17T04:16:19.864Z,7.27
2019-02-17T04:19:00.302Z,8.50
2019-02-17T04:21:55.436Z,6.53
2019-02-17T04:24:42.816Z,6.97
2019-02-17T04:27:28.193Z,10.33
2019-02-17T04:30:08.937Z,8.00
2019-02-17T04:32:45.855Z,3.40
2019-02-17T04:35:23.176Z,2.80
2019-02-17T04:38:01.430Z,2.83
2019-02-17T04:40:40.060Z,2.63
2019-02-17T04:43:20.445Z,3.07
2019-02-17T04:45:55.700Z,2.60
2019-02-17T04:48:34.684Z,2.20
2019-02-17T04:51:12.325Z,2.43
2019-02-17T04:53:47.781Z,2.20
2019-02-17T04:56:22.936Z,2.50
2019-02-17T04:58:58.472Z,2.70
2019-02-17T05:01:38.713Z,3.23
2019-02-17T05:04:23.617Z,3.20
2019-02-17T05:06:57.908Z,3.43
2019-02-17T05:09:35.160Z,3.10
2019-02-17T05:12:14.104Z,3.40
2019-02-17T05:14:50.269Z,3.23
2019-02-17T05:17:29.947Z,3.70
2019-02-17T05:20:08.486Z,4.67
2019-02-17T05:22:45.532Z,3.77
2019-02-17T05:25:20.419Z,3.97
2019-02-17T05:27:59.296Z,3.70
2019-02-17T05:30:35.196Z,3.43
2019-02-17T05:33:13.238Z,3.17
2019-02-17T05:35:49.921Z,3.23
2019-02-17T05:38:26.680Z,3.03
2019-02-17T05:41:06.075Z,2.90
2019-02-17T05:43:42.206Z,2.93
2019-02-17T05:46:20.250Z,3.43
2019-02-17T05:48:57.847Z,3.70
2019-02-17T05:51:38.971Z,3.70
2019-02-17T05:54:26.033Z,4.13
2019-02-17T05:57:02.475Z,4.90
2019-02-17T05:59:38.711Z,4.73
2019-02-17T06:02:14.576Z,4.37
2019-02-17T06:04:55.199Z,4.30
2019-02-17T06:07:33.341Z,4.43
2019-02-17T06:10:15.368Z,4.90
2019-02-17T06:12:52.549Z,4.07
2019-02-17T06:15:32.505Z,5.03
2019-02-17T06:18:12.769Z,4.80
2019-02-17T06:20:47.265Z,4.60
2019-02-17T06:23:29.151Z,5.43
2019-02-17T06:26:03.038Z,5.40
2019-02-17T06:28:41.454Z,5.50
2019-02-17T06:31:20.073Z,4.93
2019-02-17T06:33:55.247Z,5.50
2019-02-17T06:36:31.425Z,5.40
2019-02-17T06:39:10.980Z,4.80
2019-02-17T06:41:47.758Z,4.90
2019-02-17T06:44:28.485Z,5.10
2019-02-17T06:47:08.042Z,4.80
2019-02-17T06:49:44.099Z,5.37
2019-02-17T06:52:21.082Z,4.70
2019-02-17T06:55:18.861Z,4.83
2019-02-17T06:58:05.996Z,5.23
2019-02-17T07:00:37.044Z,5.60
2019-02-17T07:03:14.474Z,5.23
2019-02-17T07:06:29.396Z,4.90
2019-02-17T07:09:09.548Z,4.30
2019-02-17T07:11:45.870Z,4.57
2019-02-17T07:14:27.872Z,4.37
2019-02-17T07:17:11.913Z,4.77
2019-02-17T07:19:55.696Z,5.03
2019-02-17T07:22:34.522Z,4.83
2019-02-17T07:25:15.205Z,4.50
2019-02-17T07:27:57.903Z,3.93
2019-02-17T07:30:35.018Z,3.67
2019-02-17T07:33:15.216Z,3.40
2019-02-17T07:35:58.426Z,3.93
2019-02-17T07:38:36.515Z,4.20
2019-02-17T07:41:13.265Z,3.50
2019-02-17T07:43:48.936Z,3.43
2019-02-17T07:46:27.307Z,4.13
2019-02-17T07:49:02.682Z,3.60
2019-02-17T07:51:40.285Z,3.70
2019-02-17T07:54:16.024Z,3.73
2019-02-17T07:56:50.282Z,3.63
2019-02-17T07:59:28.815Z,3.60
2019-02-17T08:02:07.172Z,4.00
2019-02-17T08:04:44.463Z,3.83
2019-02-17T08:07:20.220Z,4.30
2019-02-17T08:10:04.339Z,4.47
2019-02-17T08:12:39.920Z,3.70
2019-02-17T08:15:17.571Z,3.80
2019-02-17T08:17:53.723Z,3.30
2019-02-17T08:20:33.587Z,3.40
2019-02-17T08:23:08.130Z,3.40
2019-02-17T08:25:42.922Z,3.10
2019-02-17T08:28:18.896Z,2.90
2019-02-17T08:30:55.723Z,3.57
2019-02-17T08:33:30.542Z,3.40
2019-02-17T08:36:06.875Z,4.13
2019-02-17T08:38:44.888Z,4.37
2019-02-17T08:41:27.489Z,3.87
2019-02-17T08:44:11.016Z,4.00
2019-02-17T08:46:48.144Z,3.80
2019-02-17T08:49:23.440Z,3.50
2019-02-17T08:52:01.095Z,3.70
2019-02-17T08:54:37.634Z,2.77
2019-02-17T08:57:23.642Z,3.47
2019-02-17T09:00:01.373Z,3.10
2019-02-17T09:02:37.409Z,3.17
2019-02-17T09:05:13.565Z,3.50
2019-02-17T09:07:51.828Z,2.93
2019-02-17T09:10:32.712Z,4.03
2019-02-17T09:13:07.349Z,4.23
2019-02-17T09:15:45.298Z,4.17
2019-02-17T09:18:23.232Z,3.60
2019-02-17T09:20:57.760Z,3.63
2019-02-17T09:23:33.119Z,3.60
2019-02-17T09:26:11.063Z,3.90
2019-02-17T09:28:50.261Z,4.27
2019-02-17T09:31:29.477Z,4.17
2019-02-17T09:34:08.402Z,4.17
2019-02-17T09:36:44.444Z,4.20
2019-02-17T09:39:21.600Z,3.70
2019-02-17T09:41:57.845Z,3.67
2019-02-17T09:44:33.898Z,3.87
2019-02-17T09:47:09.728Z,3.83
2019-02-17T09:49:47.140Z,4.43
2019-02-17T09:52:23.319Z,3.97
2019-02-17T09:55:05.489Z,4.23
2019-02-17T09:57:43.050Z,3.93
2019-02-17T10:00:18.442Z,4.00
2019-02-17T10:02:52.918Z,3.90
2019-02-17T10:05:32.157Z,3.50
2019-02-17T10:08:12.886Z,4.00
2019-02-17T10:10:58.297Z,3.33
2019-02-17T10:13:35.568Z,3.63
2019-02-17T10:16:11.731Z,4.13
2019-02-17T10:18:47.522Z,3.23
2019-02-17T10:21:28.148Z,3.70
2019-02-17T10:24:08.970Z,4.40
2019-02-17T10:26:43.326Z,4.03
2019-02-17T10:29:21.618Z,4.43
2019-02-17T10:31:58.592Z,4.17
2019-02-17T10:34:35.608Z,4.17
2019-02-17T10:37:11.177Z,4.33
2019-02-17T10:39:51.685Z,4.40
2019-02-17T10:42:26.978Z,3.93
2019-02-17T10:45:14.583Z,4.80
2019-02-17T10:48:06.723Z,5.30
2019-02-17T10:50:48.051Z,5.47
2019-02-17T10:53:26.065Z,5.30
2019-02-17T10:56:02.790Z,5.17
2019-02-17T10:58:37.941Z,4.80
2019-02-17T11:01:19.555Z,4.87
2019-02-17T11:04:11.160Z,7.17
2019-02-17T11:06:45.550Z,5.77
2019-02-17T11:09:28.634Z,4.77
2019-02-17T11:12:14.094Z,4.93
2019-02-17T11:14:49.815Z,5.03
2019-02-17T11:17:26.495Z,5.03
2019-02-17T11:20:01.265Z,5.70
2019-02-17T11:22:41.767Z,7.63
2019-02-17T11:25:19.311Z,6.13
2019-02-17T11:27:54.877Z,5.43
2019-02-17T11:30:34.530Z,5.93
2019-02-17T11:33:10.721Z,4.70
2019-02-17T11:35:47.036Z,5.33
2019-02-17T11:38:24.618Z,6.33
2019-02-17T11:40:59.835Z,7.37
2019-02-17T11:43:37.457Z,7.47
2019-02-17T11:46:12.012Z,7.53
2019-02-17T11:48:47.651Z,7.43
2019-02-17T11:51:21.982Z,7.17
2019-02-17T11:53:57.717Z,8.13
2019-02-17T11:56:34.741Z,6.27
2019-02-17T11:59:12.294Z,4.57
2019-02-17T12:01:49.436Z,3.83
2019-02-17T12:04:33.882Z,3.67
2019-02-17T12:07:17.437Z,3.87
2019-02-17T12:09:53.922Z,3.00
2019-02-17T12:12:33.153Z,3.47
2019-02-17T12:15:11.766Z,3.20
2019-02-17T12:17:48.072Z,3.00
2019-02-17T12:20:43.336Z,2.93
2019-02-17T12:23:22.191Z,2.93
2019-02-17T12:26:04.530Z,2.90
2019-02-17T12:29:00.810Z,3.30
2019-02-17T12:31:38.380Z,3.60
2019-02-17T12:34:15.520Z,3.30
2019-02-17T12:36:50.867Z,2.80
2019-02-17T12:39:29.459Z,2.77
2019-02-17T12:42:07.426Z,3.57
2019-02-17T12:44:48.429Z,3.40
2019-02-17T12:47:22.882Z,2.53
2019-02-17T12:50:01.894Z,2.50
2019-02-17T12:52:46.517Z,2.00
2019-02-17T12:55:16.257Z,1.90
2019-02-17T12:57:54.155Z,2.40
2019-02-17T13:00:33.413Z,2.77
2019-02-17T13:03:28.250Z,2.53
2019-02-17T13:05:57.342Z,2.73
2019-02-17T13:08:32.467Z,2.33
2019-02-17T13:11:08.197Z,2.83
2019-02-17T13:13:43.701Z,2.37
2019-02-17T13:16:20.859Z,2.47
2019-02-17T13:18:54.946Z,1.73
2019-02-17T13:21:36.996Z,2.00
2019-02-17T13:24:11.177Z,2.13
2019-02-17T13:26:48.190Z,2.03
2019-02-17T13:29:24.478Z,2.20
2019-02-17T13:32:08.270Z,2.10
2019-02-17T13:34:42.782Z,1.97
2019-02-17T13:37:20.481Z,1.90
2019-02-17T13:39:56.261Z,2.30
2019-02-17T13:42:33.298Z,1.90
2019-02-17T13:45:09.512Z,1.77
2019-02-17T13:47:44.117Z,1.90
2019-02-17T13:50:21.958Z,2.43
2019-02-17T13:52:59.556Z,2.03
2019-02-17T13:55:35.950Z,2.30
2019-02-17T13:58:22.198Z,1.73
2019-02-17T14:00:59.512Z,2.10
2019-02-17T14:03:35.302Z,1.90
2019-02-17T14:06:13.706Z,2.13
2019-02-17T14:08:51.475Z,2.07
2019-02-17T14:11:26.561Z,2.13
2019-02-17T14:14:04.268Z,2.00
2019-02-17T14:16:41.204Z,2.33
2019-02-17T14:19:21.067Z,1.97
2019-02-17T14:21:56.381Z,3.27
2019-02-17T14:24:32.562Z,2.60
2019-02-17T14:27:10.970Z,2.90
2019-02-17T14:29:49.230Z,3.30
2019-02-17T14:32:23.982Z,2.20
2019-02-17T14:35:01.883Z,2.40
2019-02-17T14:37:40.970Z,3.03
2019-02-17T14:40:23.992Z,3.07
2019-02-17T14:43:01.026Z,2.53
2019-02-17T14:45:44.691Z,2.40
2019-02-17T14:48:19.663Z,2.10
2019-02-17T14:50:54.746Z,2.33
2019-02-17T14:53:33.777Z,2.60
2019-02-17T14:56:10.937Z,2.60
2019-02-17T14:58:46.680Z,2.40
2019-02-17T15:01:23.838Z,2.27
2019-02-17T15:03:58.192Z,2.07
2019-02-17T15:06:35.124Z,2.40
2019-02-17T15:09:16.797Z,1.90
2019-02-17T15:11:55.314Z,2.03
2019-02-17T15:14:42.647Z,2.33
2019-02-17T15:17:19.624Z,2.10
2019-02-17T15:19:58.385Z,2.13
2019-02-17T15:22:34.485Z,1.90
2019-02-17T15:25:09.454Z,1.93
2019-02-17T15:27:45.189Z,2.70
2019-02-17T15:30:21.249Z,2.50
2019-02-17T15:33:03.977Z,2.60
2019-02-17T15:35:33.179Z,2.90
2019-02-17T15:38:16.678Z,3.97
2019-02-17T15:40:51.351Z,4.77
2019-02-17T15:43:26.696Z,5.77
2019-02-17T15:46:02.424Z,4.07
2019-02-17T15:48:49.523Z,3.40
2019-02-17T15:51:26.139Z,3.40
2019-02-17T15:54:10.372Z,2.80
2019-02-17T15:56:48.624Z,2.57
2019-02-17T15:59:26.875Z,2.73
2019-02-17T16:02:04.002Z,2.80
2019-02-17T16:04:40.027Z,2.60
2019-02-17T16:07:16.428Z,2.70
2019-02-17T16:09:52.600Z,2.57
2019-02-17T16:12:30.800Z,2.60
2019-02-17T16:15:08.163Z,3.00
2019-02-17T16:17:47.069Z,3.07
2019-02-17T16:20:24.511Z,2.90
2019-02-17T16:23:02.059Z,3.07
2019-02-17T16:25:39.071Z,2.90
2019-02-17T16:28:15.380Z,3.23
2019-02-17T16:30:50.038Z,3.00
2019-02-17T16:33:26.583Z,4.00
2019-02-17T16:36:05.400Z,5.47
2019-02-17T16:38:46.598Z,4.90
2019-02-17T16:41:23.515Z,4.87
2019-02-17T16:44:16.248Z,5.20
2019-02-17T16:46:55.081Z,4.93
2019-02-17T16:49:35.346Z,4.53
2019-02-17T16:52:18.589Z,4.33
2019-02-17T16:54:53.719Z,4.03
2019-02-17T16:57:35.232Z,3.90
2019-02-17T17:00:12.244Z,3.93
2019-02-17T17:02:56.771Z,3.20
2019-02-17T17:05:33.958Z,3.13
2019-02-17T17:08:09.033Z,3.00
2019-02-17T17:10:46.618Z,2.77
2019-02-17T17:13:29.216Z,2.83
2019-02-17T17:16:08.565Z,2.60
2019-02-17T17:18:44.035Z,3.07
2019-02-17T17:21:21.361Z,3.20
2019-02-17T17:23:59.347Z,2.90
2019-02-17T17:26:34.550Z,2.70
2019-02-17T17:29:13.933Z,2.50
2019-02-17T17:31:54.572Z,2.40
2019-02-17T17:34:34.180Z,3.17
2019-02-17T17:37:11.202Z,2.73
2019-02-17T17:39:45.883Z,3.17
2019-02-17T17:42:22.311Z,3.40
2019-02-17T17:44:57.695Z,2.93
2019-02-17T17:47:34.533Z,2.87
2019-02-17T17:50:11.052Z,2.70
2019-02-17T17:52:45.957Z,3.10
2019-02-17T17:55:22.966Z,3.00
2019-02-17T17:58:00.664Z,3.10
2019-02-17T18:00:52.584Z,3.00
2019-02-17T18:03:50.887Z,2.70
2019-02-17T18:06:34.958Z,2.60
2019-02-17T18:09:10.317Z,2.70
2019-02-17T18:11:46.984Z,2.90
2019-02-17T18:14:22.160Z,3.10
2019-02-17T18:17:01.390Z,2.90
2019-02-17T18:19:39.440Z,3.63
2019-02-17T18:22:17.757Z,3.43
2019-02-17T18:24:57.062Z,3.27
2019-02-17T18:27:37.479Z,3.53
2019-02-17T18:30:16.794Z,3.43
2019-02-17T18:32:53.879Z,4.03
2019-02-17T18:35:31.411Z,3.80
2019-02-17T18:38:07.191Z,4.53
2019-02-17T18:40:47.202Z,4.00
2019-02-17T18:43:19.641Z,4.33
2019-02-17T18:45:55.565Z,3.40
2019-02-17T18:48:38.119Z,2.30
2019-02-17T18:51:15.874Z,3.20
2019-02-17T18:53:53.875Z,3.07
2019-02-17T18:56:29.799Z,3.00
2019-02-17T18:59:07.148Z,2.80
2019-02-17T19:01:42.399Z,2.93
2019-02-17T19:04:20.476Z,2.53
2019-02-17T19:06:58.504Z,2.87
2019-02-17T19:09:35.191Z,3.57
2019-02-17T19:12:15.084Z,3.30
2019-02-17T19:14:54.570Z,3.27
2019-02-17T19:17:31.611Z,2.67
2019-02-17T19:20:06.729Z,3.23
2019-02-17T19:22:44.208Z,3.00
2019-02-17T19:25:18.629Z,3.40
2019-02-17T19:27:58.290Z,3.40
2019-02-17T19:30:33.374Z,4.63
2019-02-17T19:33:13.289Z,3.30
2019-02-17T19:35:47.742Z,4.00
2019-02-17T19:38:24.465Z,4.03
2019-02-17T19:41:01.518Z,3.63
2019-02-17T19:43:36.335Z,4.60
2019-02-17T19:46:13.547Z,4.87
2019-02-17T19:48:49.762Z,5.23
2019-02-17T19:51:24.790Z,5.27
2019-02-17T19:54:00.648Z,5.40
2019-02-17T19:56:37.104Z,5.40
2019-02-17T19:59:13.095Z,6.10
2019-02-17T20:01:48.731Z,5.70
2019-02-17T20:04:35.539Z,5.40
2019-02-17T20:07:10.948Z,5.80
2019-02-17T20:09:48.675Z,6.23
2019-02-17T20:12:25.980Z,5.83
2019-02-17T20:15:01.228Z,5.73
2019-02-17T20:17:36.443Z,5.30
2019-02-17T20:20:18.026Z,5.80
2019-02-17T20:22:54.776Z,5.23
2019-02-17T20:25:30.224Z,5.13
2019-02-17T20:28:08.259Z,5.20
2019-02-17T20:30:43.487Z,5.40
2019-02-17T20:33:22.590Z,5.40
2019-02-17T20:36:03.010Z,5.33
2019-02-17T20:38:39.012Z,5.03
2019-02-17T20:41:18.271Z,4.60
2019-02-17T20:43:55.597Z,5.17
2019-02-17T20:46:31.604Z,4.93
2019-02-17T20:49:11.102Z,4.50
2019-02-17T20:52:12.789Z,4.80
2019-02-17T20:54:54.481Z,5.17
2019-02-17T20:57:29.042Z,5.27
2019-02-17T21:00:03.877Z,5.00
2019-02-17T21:02:51.526Z,5.60
2019-02-17T21:05:27.970Z,6.73
2019-02-17T21:08:05.650Z,5.47
2019-02-17T21:10:40.584Z,5.43
2019-02-17T21:13:15.243Z,5.80
2019-02-17T21:15:52.673Z,5.53
2019-02-17T21:18:30.392Z,6.10
2019-02-17T21:21:11.728Z,6.17
2019-02-17T21:23:47.225Z,5.17
2019-02-17T21:26:26.208Z,4.30
2019-02-17T21:28:58.794Z,4.50
2019-02-17T21:31:33.809Z,4.87
2019-02-17T21:34:09.763Z,5.30
2019-02-17T21:36:48.091Z,4.90
2019-02-17T21:39:22.336Z,4.77
2019-02-17T21:41:56.553Z,4.50
2019-02-17T21:44:32.313Z,4.33
2019-02-17T21:47:08.929Z,3.97
2019-02-17T21:49:46.308Z,3.93
2019-02-17T21:52:28.458Z,3.53
2019-02-17T21:55:04.511Z,5.17
2019-02-17T21:57:40.458Z,3.60
2019-02-17T22:00:20.487Z,3.40
2019-02-17T22:02:57.814Z,3.27
2019-02-17T22:05:34.959Z,3.50
2019-02-17T22:08:14.699Z,3.23
2019-02-17T22:10:50.292Z,2.93
2019-02-17T22:13:25.391Z,3.03
2019-02-17T22:16:00.194Z,3.73
2019-02-17T22:18:37.087Z,2.90
2019-02-17T22:21:14.408Z,3.40
2019-02-17T22:23:50.311Z,2.90
2019-02-17T22:26:24.744Z,2.77
2019-02-17T22:29:00.546Z,3.37
2019-02-17T22:31:35.915Z,3.37
2019-02-17T22:34:11.777Z,3.10
2019-02-17T22:36:47.480Z,3.13
2019-02-17T22:39:22.887Z,3.00
2019-02-17T22:41:58.353Z,2.60
2019-02-17T22:44:33.987Z,2.80
2019-02-17T22:47:08.857Z,2.73
2019-02-17T22:49:46.309Z,3.00
2019-02-17T22:52:21.595Z,3.00
2019-02-17T22:55:00.295Z,3.23
2019-02-17T22:57:37.297Z,2.90
2019-02-17T23:00:59.787Z,3.03
2019-02-17T23:03:35.206Z,3.17
2019-02-17T23:09:53.088Z,3.10
2019-02-17T23:12:33.913Z,2.67
2019-02-17T23:15:13.950Z,3.13
2019-02-17T23:17:50.003Z,2.90
2019-02-17T23:20:26.822Z,3.50
2019-02-17T23:23:05.272Z,2.90
2019-02-17T23:25:39.780Z,3.07
2019-02-17T23:28:15.363Z,2.43
2019-02-17T23:30:57.537Z,2.70
2019-02-17T23:33:51.037Z,2.97
2019-02-17T23:36:27.313Z,3.47
2019-02-17T23:39:02.939Z,3.43
2019-02-17T23:41:39.500Z,2.90
2019-02-17T23:44:17.049Z,3.20
2019-02-17T23:47:02.647Z,3.17
2019-02-17T23:49:38.491Z,4.20
2019-02-17T23:52:14.039Z,3.77
2019-02-17T23:54:50.796Z,3.27
2019-02-17T23:57:27.504Z,3.10
